Des Peres, Missouri
Current Conditions -  °F | °C
As of 9:51 AM on Friday 24 Oct 2014 (Local Time) from KSTL Reporting Station
Broken Clouds Broken Clouds  
Wind Chill: 16°   Ceiling: 1600
Heat Index: 16°   Visibility: 8mi
Dew Point: 13°   Wind: 3mph
Humidity: 81%   Direction: 290°WNW
Pressure: 30.13"   Gusts: NA
Location:  38.5796°N, 90.4197°W
Report Text: KSTL 241451Z 29003KT 8SM SCT008 BKN016 16/13 A3013 RMK AO2 SLP199 T01610128 53009
Loading
Personal Weather Stations






























Interactive Weather Map
Tropical Storm Tracking
New forecast layout! Learn more

10-Day Weather Forecast

Advertisements
Track Severe Weather on mobile